Time;durP1;ratioP1;P1;durP2;ratioP2;P2;SDS_P1;SDS_P2;PMS_P1;PMS_P2;Temp;Humidity;BMP_temperature;BMP_pressure;BME280_temperature;BME280_humidity;BME280_pressure;Samples;Min_cycle;Max_cycle;Signal;HPM_P1;HPM_P2
2023/08/20 00:01:45;;;;;;;8.77;3.53;;;;;;;;;;5047790;28;20037;-74
2023/08/20 00:04:11;;;;;;;7.03;1.88;;;;;;;;;;5051270;28;20025;-74
2023/08/20 00:06:37;;;;;;;6.93;2.33;;;;;;;;;;5045953;28;20037;-74
2023/08/20 00:09:06;;;;;;;11.13;1.90;;;;;;;;;;5046012;28;20033;-74
2023/08/20 00:11:32;;;;;;;7.63;2.10;;;;;;;;;;5042588;28;20052;-74
2023/08/20 00:13:58;;;;;;;8.43;1.95;;;;;;;;;;5044118;28;20044;-73
2023/08/20 00:16:24;;;;;;;9.02;2.20;;;;;;;;;;5039054;28;20036;-74
2023/08/20 00:18:50;;;;;;;6.03;1.95;;;;;;;;;;5047771;28;20033;-75
2023/08/20 00:21:16;;;;;;;9.80;2.53;;;;;;;;;;5047282;28;20033;-74
2023/08/20 00:23:42;;;;;;;8.82;3.05;;;;;;;;;;5041392;28;20028;-79
2023/08/20 00:26:10;;;;;;;6.32;2.20;;;;;;;;;;5043577;28;20049;-77
2023/08/20 00:28:38;;;;;;;5.32;1.88;;;;;;;;;;5046520;28;20111;-78
2023/08/20 00:31:04;;;;;;;4.90;1.30;;;;;;;;;;5037369;28;20051;-75
2023/08/20 00:33:30;;;;;;;8.52;2.10;;;;;;;;;;5040774;28;20469;-77
2023/08/20 00:35:56;;;;;;;6.45;1.98;;;;;;;;;;5041730;28;20063;-76
2023/08/20 00:38:22;;;;;;;6.70;1.88;;;;;;;;;;5045903;28;20482;-75
2023/08/20 00:40:48;;;;;;;9.65;2.30;;;;;;;;;;5044813;28;20393;-77
2023/08/20 00:43:14;;;;;;;7.45;1.88;;;;;;;;;;5046439;28;20029;-75
2023/08/20 00:45:41;;;;;;;5.47;1.83;;;;;;;;;;5040753;28;20033;-77
2023/08/20 00:48:07;;;;;;;4.78;2.22;;;;;;;;;;5046204;28;20414;-74
2023/08/20 00:50:34;;;;;;;7.85;2.08;;;;;;;;;;5046756;28;20099;-75
2023/08/20 00:53:00;;;;;;;6.70;2.13;;;;;;;;;;5046335;28;20143;-77
2023/08/20 00:55:26;;;;;;;5.97;2.38;;;;;;;;;;5044902;28;20682;-77
2023/08/20 00:57:52;;;;;;;7.28;2.28;;;;;;;;;;5047193;28;20036;-77
2023/08/20 01:00:19;;;;;;;6.18;1.83;;;;;;;;;;5049152;28;20111;-74
2023/08/20 01:02:45;;;;;;;5.88;2.03;;;;;;;;;;5046693;28;20482;-74
2023/08/20 01:05:12;;;;;;;6.57;1.83;;;;;;;;;;5045926;28;20135;-76
2023/08/20 01:07:47;;;;;;;6.60;2.33;;;;;;;;;;5047950;28;20496;-76
2023/08/20 01:10:18;;;;;;;7.38;2.58;;;;;;;;;;5048451;28;20041;-74
2023/08/20 01:12:44;;;;;;;6.25;2.40;;;;;;;;;;5041783;28;20063;-76
2023/08/20 01:15:13;;;;;;;6.00;1.90;;;;;;;;;;5044307;28;20061;-79
2023/08/20 01:17:40;;;;;;;7.30;2.20;;;;;;;;;;5045886;28;20121;-74
2023/08/20 01:20:06;;;;;;;6.22;2.75;;;;;;;;;;5049128;28;20025;-75
2023/08/20 01:22:45;;;;;;;5.20;2.20;;;;;;;;;;5047016;28;20037;-74
2023/08/20 01:25:33;;;;;;;6.55;2.50;;;;;;;;;;5048830;28;20037;-78
2023/08/20 01:28:07;;;;;;;6.57;2.55;;;;;;;;;;5046881;28;20029;-73
2023/08/20 01:30:33;;;;;;;9.43;4.13;;;;;;;;;;5046895;28;20029;-77
2023/08/20 01:33:00;;;;;;;15.77;5.30;;;;;;;;;;5049855;28;20040;-78
2023/08/20 01:35:26;;;;;;;35.97;19.52;;;;;;;;;;5050314;28;20510;-74
2023/08/20 01:37:52;;;;;;;8.27;4.00;;;;;;;;;;5048501;28;20037;-76
2023/08/20 01:40:18;;;;;;;8.77;3.10;;;;;;;;;;5048634;28;20045;-74
2023/08/20 01:42:44;;;;;;;9.32;2.75;;;;;;;;;;5049103;28;20067;-75
2023/08/20 01:45:10;;;;;;;7.72;2.60;;;;;;;;;;5049558;28;20119;-75
2023/08/20 01:47:36;;;;;;;8.13;2.70;;;;;;;;;;5049675;28;20099;-75
2023/08/20 01:50:03;;;;;;;7.70;2.40;;;;;;;;;;5047943;28;20071;-75
2023/08/20 01:52:32;;;;;;;6.35;2.65;;;;;;;;;;5047072;28;20033;-75
2023/08/20 01:54:58;;;;;;;10.93;3.22;;;;;;;;;;5049431;28;20118;-75
2023/08/20 01:57:24;;;;;;;7.82;3.25;;;;;;;;;;5051205;28;20057;-75
2023/08/20 01:59:50;;;;;;;13.43;3.20;;;;;;;;;;5046478;28;20079;-74
2023/08/20 02:02:16;;;;;;;9.77;3.50;;;;;;;;;;5048426;28;20472;-74
2023/08/20 02:04:43;;;;;;;8.77;2.88;;;;;;;;;;5047059;28;20449;-75
2023/08/20 02:07:09;;;;;;;8.63;3.20;;;;;;;;;;5032552;28;20119;-77
2023/08/20 02:09:35;;;;;;;8.57;3.28;;;;;;;;;;5046303;28;20553;-75
2023/08/20 02:12:00;;;;;;;8.18;3.10;;;;;;;;;;5046756;28;20029;-75
2023/08/20 02:14:28;;;;;;;5.28;2.67;;;;;;;;;;5049784;28;20040;-74
2023/08/20 02:16:54;;;;;;;7.13;3.22;;;;;;;;;;5049662;28;20033;-74
2023/08/20 02:19:20;;;;;;;8.35;3.30;;;;;;;;;;5047574;28;20054;-74
2023/08/20 02:21:47;;;;;;;12.73;3.90;;;;;;;;;;5047944;28;20486;-74
2023/08/20 02:24:13;;;;;;;9.18;3.80;;;;;;;;;;5048420;28;20118;-73
2023/08/20 02:26:39;;;;;;;6.93;3.58;;;;;;;;;;5044037;28;20474;-74
2023/08/20 02:29:05;;;;;;;12.80;4.85;;;;;;;;;;5048340;28;20035;-75
2023/08/20 02:31:31;;;;;;;9.88;3.90;;;;;;;;;;5048899;28;20055;-73
2023/08/20 02:33:57;;;;;;;10.35;4.30;;;;;;;;;;5047126;28;20079;-74
2023/08/20 02:36:23;;;;;;;10.10;4.63;;;;;;;;;;5048227;28;20524;-74
2023/08/20 02:38:50;;;;;;;11.63;4.45;;;;;;;;;;5047049;28;20065;-74
2023/08/20 02:41:16;;;;;;;12.63;3.78;;;;;;;;;;5047773;28;20029;-74
2023/08/20 02:43:42;;;;;;;12.35;4.22;;;;;;;;;;5046440;28;20715;-75
2023/08/20 02:46:08;;;;;;;10.25;4.13;;;;;;;;;;5038659;28;20108;-74
2023/08/20 02:48:34;;;;;;;12.82;4.65;;;;;;;;;;5047376;28;20033;-74
2023/08/20 02:51:00;;;;;;;12.98;4.35;;;;;;;;;;5048761;28;20037;-74
2023/08/20 02:53:26;;;;;;;10.68;3.78;;;;;;;;;;5050038;28;20059;-74
2023/08/20 02:55:52;;;;;;;13.82;5.00;;;;;;;;;;5049639;28;20051;-74
2023/08/20 02:58:18;;;;;;;9.10;4.32;;;;;;;;;;5047022;28;20112;-74
2023/08/20 03:00:44;;;;;;;9.20;4.25;;;;;;;;;;5044935;28;20025;-74
2023/08/20 03:03:11;;;;;;;11.77;4.22;;;;;;;;;;5045469;28;20051;-74
2023/08/20 03:05:37;;;;;;;11.52;4.82;;;;;;;;;;5045732;28;20044;-74
2023/08/20 03:08:06;;;;;;;12.43;4.78;;;;;;;;;;5046739;28;20025;-74
2023/08/20 03:10:32;;;;;;;9.75;4.45;;;;;;;;;;5046385;28;20708;-74
2023/08/20 03:12:59;;;;;;;9.90;3.75;;;;;;;;;;5046980;28;20058;-73
2023/08/20 03:15:25;;;;;;;6.45;3.60;;;;;;;;;;5041498;28;20105;-73
2023/08/20 03:17:51;;;;;;;10.20;3.90;;;;;;;;;;5059630;28;20044;-74
2023/08/20 03:20:18;;;;;;;8.57;3.70;;;;;;;;;;5046924;28;20044;-74
2023/08/20 03:22:44;;;;;;;6.25;3.30;;;;;;;;;;5046943;28;20029;-74
2023/08/20 03:25:10;;;;;;;10.05;3.90;;;;;;;;;;5044681;28;20033;-74
2023/08/20 03:27:36;;;;;;;8.20;3.53;;;;;;;;;;5047878;28;20036;-74
2023/08/20 03:30:02;;;;;;;6.72;3.60;;;;;;;;;;5044938;28;20026;-74
2023/08/20 03:32:28;;;;;;;13.02;4.30;;;;;;;;;;5047306;28;20036;-74
2023/08/20 03:34:55;;;;;;;12.75;4.78;;;;;;;;;;5048038;28;20052;-74
2023/08/20 03:37:22;;;;;;;10.50;4.25;;;;;;;;;;5046521;28;20537;-74
2023/08/20 03:39:48;;;;;;;8.20;3.47;;;;;;;;;;5047286;28;20409;-74
2023/08/20 03:42:14;;;;;;;7.45;3.97;;;;;;;;;;5046969;28;20048;-74
2023/08/20 03:44:40;;;;;;;9.25;4.28;;;;;;;;;;5046312;28;20037;-74
2023/08/20 03:47:06;;;;;;;13.50;4.85;;;;;;;;;;5046045;28;20043;-74
2023/08/20 03:49:32;;;;;;;9.13;4.63;;;;;;;;;;5047007;28;20386;-74
2023/08/20 03:51:58;;;;;;;12.35;4.43;;;;;;;;;;5045298;28;20025;-74
2023/08/20 03:54:24;;;;;;;13.25;5.68;;;;;;;;;;5046934;28;20044;-74
2023/08/20 03:56:50;;;;;;;11.05;4.43;;;;;;;;;;5045716;28;20436;-74
2023/08/20 03:59:16;;;;;;;13.43;4.38;;;;;;;;;;5045609;28;20086;-74
2023/08/20 04:01:42;;;;;;;11.02;4.53;;;;;;;;;;5043160;28;20037;-74
2023/08/20 04:04:08;;;;;;;13.10;4.32;;;;;;;;;;5045257;28;20041;-73
2023/08/20 04:06:34;;;;;;;9.75;4.93;;;;;;;;;;5045626;28;20043;-74
2023/08/20 04:09:00;;;;;;;10.75;4.65;;;;;;;;;;5046989;28;20478;-74
2023/08/20 04:11:26;;;;;;;9.07;4.00;;;;;;;;;;5043627;28;20040;-74
2023/08/20 04:13:52;;;;;;;16.45;6.57;;;;;;;;;;5041786;28;20028;-74
2023/08/20 04:16:18;;;;;;;15.65;4.72;;;;;;;;;;5047664;28;20041;-73
2023/08/20 04:18:44;;;;;;;11.73;4.45;;;;;;;;;;5046527;28;20782;-74
2023/08/20 04:21:10;;;;;;;8.43;4.25;;;;;;;;;;5046976;28;20041;-74
2023/08/20 04:23:36;;;;;;;11.73;5.00;;;;;;;;;;5047362;28;20039;-73
2023/08/20 04:26:02;;;;;;;10.80;4.35;;;;;;;;;;5045552;28;20075;-73
2023/08/20 04:28:28;;;;;;;13.85;5.05;;;;;;;;;;5045212;28;20033;-73
2023/08/20 04:30:54;;;;;;;10.82;5.22;;;;;;;;;;5043259;28;20544;-74
2023/08/20 04:33:20;;;;;;;14.43;5.40;;;;;;;;;;5037789;28;20041;-74
2023/08/20 04:35:47;;;;;;;8.60;5.10;;;;;;;;;;5048904;28;20037;-74
2023/08/20 04:38:13;;;;;;;11.93;5.28;;;;;;;;;;5050717;28;20045;-74
2023/08/20 04:40:39;;;;;;;10.57;5.10;;;;;;;;;;5030626;28;20053;-74
2023/08/20 04:43:05;;;;;;;8.38;4.60;;;;;;;;;;5047252;28;20095;-74
2023/08/20 04:45:31;;;;;;;9.52;4.95;;;;;;;;;;5049647;28;20040;-74
2023/08/20 04:47:57;;;;;;;12.77;5.47;;;;;;;;;;5049305;28;20387;-74
2023/08/20 04:50:23;;;;;;;9.80;5.55;;;;;;;;;;5050900;28;20041;-74
2023/08/20 04:52:49;;;;;;;14.57;5.53;;;;;;;;;;5048268;28;20083;-74
2023/08/20 04:55:15;;;;;;;18.55;5.93;;;;;;;;;;5049507;28;20273;-73
2023/08/20 04:57:41;;;;;;;15.27;5.20;;;;;;;;;;5048311;28;20525;-74
2023/08/20 05:00:09;;;;;;;10.30;6.22;;;;;;;;;;5048125;28;20433;-75
2023/08/20 05:02:35;;;;;;;14.40;5.93;;;;;;;;;;5050051;28;20071;-74
2023/08/20 05:05:02;;;;;;;14.80;5.95;;;;;;;;;;5049331;28;20041;-74
2023/08/20 05:07:28;;;;;;;15.27;6.07;;;;;;;;;;5048097;28;20041;-74
2023/08/20 05:09:54;;;;;;;11.80;5.72;;;;;;;;;;5049919;28;20654;-74
2023/08/20 05:12:20;;;;;;;13.80;6.18;;;;;;;;;;5049060;28;20057;-75
2023/08/20 05:14:46;;;;;;;14.82;6.03;;;;;;;;;;5048889;28;20072;-75
2023/08/20 05:17:12;;;;;;;18.45;6.90;;;;;;;;;;5048901;28;20490;-74
2023/08/20 05:19:38;;;;;;;12.48;5.72;;;;;;;;;;5048262;28;20082;-74
2023/08/20 05:22:04;;;;;;;11.02;6.25;;;;;;;;;;5050843;28;20116;-74
2023/08/20 05:24:30;;;;;;;17.67;6.60;;;;;;;;;;5044091;28;20037;-73
2023/08/20 05:27:16;;;;;;;12.63;5.28;;;;;;;;;;5044875;28;20040;-74
2023/08/20 05:29:42;;;;;;;12.85;6.57;;;;;;;;;;5048939;28;20494;-74
2023/08/20 05:32:08;;;;;;;15.18;5.90;;;;;;;;;;5049146;28;20093;-74
2023/08/20 05:34:35;;;;;;;13.70;6.10;;;;;;;;;;5048883;28;20029;-74
2023/08/20 05:37:01;;;;;;;15.50;6.25;;;;;;;;;;5048453;28;20200;-74
2023/08/20 05:39:27;;;;;;;12.88;6.03;;;;;;;;;;5049051;28;20143;-74
2023/08/20 05:41:54;;;;;;;14.27;6.13;;;;;;;;;;5051262;28;20116;-74
2023/08/20 05:44:20;;;;;;;12.80;5.90;;;;;;;;;;5048764;28;20025;-74
2023/08/20 05:46:46;;;;;;;12.93;6.03;;;;;;;;;;5046954;28;20044;-74
2023/08/20 05:49:13;;;;;;;19.77;6.07;;;;;;;;;;5048621;28;20032;-75
2023/08/20 05:51:39;;;;;;;17.20;6.95;;;;;;;;;;5047255;28;20456;-76
2023/08/20 05:54:05;;;;;;;16.83;5.90;;;;;;;;;;5039478;28;20066;-75
2023/08/20 05:56:31;;;;;;;15.43;5.68;;;;;;;;;;5039013;28;20033;-76
2023/08/20 05:58:57;;;;;;;15.43;6.70;;;;;;;;;;5037204;28;20482;-77
2023/08/20 06:01:23;;;;;;;17.00;5.47;;;;;;;;;;5038400;28;20052;-77
2023/08/20 06:03:49;;;;;;;11.00;5.65;;;;;;;;;;5040029;28;20040;-77
2023/08/20 06:06:15;;;;;;;13.48;5.95;;;;;;;;;;5042939;28;20041;-77
2023/08/20 06:08:41;;;;;;;14.30;5.78;;;;;;;;;;5042048;28;20544;-79
2023/08/20 06:11:07;;;;;;;22.58;10.65;;;;;;;;;;5046880;28;20041;-80
2023/08/20 06:13:33;;;;;;;35.20;18.40;;;;;;;;;;5039376;28;20071;-79
2023/08/20 06:15:59;;;;;;;22.83;6.30;;;;;;;;;;5043824;28;20028;-81
2023/08/20 06:18:25;;;;;;;17.60;5.68;;;;;;;;;;5034705;28;20200;-78
2023/08/20 06:20:51;;;;;;;13.57;5.32;;;;;;;;;;5040077;28;20135;-76
2023/08/20 06:23:17;;;;;;;18.73;5.82;;;;;;;;;;5036643;28;20041;-77
2023/08/20 06:25:43;;;;;;;13.40;5.70;;;;;;;;;;5044388;28;20567;-76
2023/08/20 06:28:09;;;;;;;16.92;5.72;;;;;;;;;;5038788;28;20033;-77
2023/08/20 06:30:35;;;;;;;20.00;5.25;;;;;;;;;;5038868;28;20474;-77
2023/08/20 06:33:02;;;;;;;45.13;22.38;;;;;;;;;;5038531;28;20041;-80
2023/08/20 06:35:28;;;;;;;236.73;154.27;;;;;;;;;;5041875;28;20162;-78
2023/08/20 06:37:54;;;;;;;30.33;14.70;;;;;;;;;;5039792;28;20079;-79
2023/08/20 06:40:20;;;;;;;17.63;7.18;;;;;;;;;;5040627;28;20539;-79
2023/08/20 06:42:46;;;;;;;19.95;6.22;;;;;;;;;;5044741;28;20045;-78
2023/08/20 06:45:12;;;;;;;27.63;5.65;;;;;;;;;;5043094;28;20041;-79
2023/08/20 06:47:38;;;;;;;19.45;6.35;;;;;;;;;;5040972;28;20465;-79
2023/08/20 06:50:06;;;;;;;15.70;6.05;;;;;;;;;;5036136;28;20477;-75
2023/08/20 06:52:32;;;;;;;17.83;5.63;;;;;;;;;;5034169;28;20414;-73
2023/08/20 06:54:58;;;;;;;14.15;5.10;;;;;;;;;;5035168;28;20041;-76
2023/08/20 06:57:24;;;;;;;18.23;5.47;;;;;;;;;;5039991;28;20044;-77
2023/08/20 06:59:50;;;;;;;21.70;6.07;;;;;;;;;;5037150;28;20037;-77
2023/08/20 07:02:16;;;;;;;21.77;5.90;;;;;;;;;;5042167;28;20031;-75
2023/08/20 07:04:42;;;;;;;17.13;6.45;;;;;;;;;;5039958;28;20029;-74
2023/08/20 07:07:09;;;;;;;21.63;6.07;;;;;;;;;;5038469;28;20017;-76
2023/08/20 07:09:35;;;;;;;16.67;5.45;;;;;;;;;;5048316;28;20541;-73
2023/08/20 07:12:01;;;;;;;63.60;35.55;;;;;;;;;;5049787;28;20031;-75
2023/08/20 07:14:27;;;;;;;37.15;20.77;;;;;;;;;;5047882;28;20423;-75
2023/08/20 07:16:53;;;;;;;20.10;5.88;;;;;;;;;;5052126;28;20087;-74
2023/08/20 07:19:19;;;;;;;18.30;4.80;;;;;;;;;;5048307;28;20084;-76
2023/08/20 07:21:52;;;;;;;16.92;4.80;;;;;;;;;;5030959;28;20424;-75
2023/08/20 07:24:18;;;;;;;20.98;4.75;;;;;;;;;;4999635;28;20054;-75
2023/08/20 07:26:44;;;;;;;22.23;5.35;;;;;;;;;;4993772;28;20764;-76
2023/08/20 07:29:10;;;;;;;16.67;4.28;;;;;;;;;;4998620;28;20451;-75
2023/08/20 07:31:36;;;;;;;22.20;5.15;;;;;;;;;;5000818;28;20030;-75
2023/08/20 07:34:04;;;;;;;18.00;4.10;;;;;;;;;;5001829;28;20039;-74
2023/08/20 07:36:30;;;;;;;20.35;4.97;;;;;;;;;;5001888;28;20505;-74
2023/08/20 07:38:56;;;;;;;24.88;4.32;;;;;;;;;;4994660;28;20057;-75
2023/08/20 07:41:22;;;;;;;19.90;4.85;;;;;;;;;;5003159;28;20057;-74
2023/08/20 07:43:48;;;;;;;18.15;3.38;;;;;;;;;;5002085;28;20046;-75
2023/08/20 07:46:15;;;;;;;17.30;3.92;;;;;;;;;;5010956;28;20045;-74
2023/08/20 07:48:41;;;;;;;14.65;2.85;;;;;;;;;;5004007;28;20030;-74
2023/08/20 07:51:07;;;;;;;20.17;3.10;;;;;;;;;;5007954;28;20034;-75
2023/08/20 07:53:33;;;;;;;19.98;4.90;;;;;;;;;;5001827;28;20047;-75
2023/08/20 07:56:00;;;;;;;11.90;2.75;;;;;;;;;;4999161;28;20046;-73
2023/08/20 07:58:27;;;;;;;13.88;2.97;;;;;;;;;;5005483;28;20025;-73
2023/08/20 08:00:53;;;;;;;18.08;3.33;;;;;;;;;;5001241;28;20523;-77
2023/08/20 08:03:19;;;;;;;111.03;73.55;;;;;;;;;;5012382;28;20033;-77
2023/08/20 08:05:51;;;;;;;21.50;7.32;;;;;;;;;;5002679;28;20101;-77
2023/08/20 08:08:17;;;;;;;13.32;2.75;;;;;;;;;;5004115;28;20026;-78
2023/08/20 08:10:46;;;;;;;16.05;3.03;;;;;;;;;;4999696;28;20046;-75
2023/08/20 08:13:13;;;;;;;14.30;3.25;;;;;;;;;;5000701;28;20112;-75
2023/08/20 08:15:39;;;;;;;11.45;2.22;;;;;;;;;;5007462;28;20093;-74
2023/08/20 08:18:05;;;;;;;8.68;2.20;;;;;;;;;;5007307;28;20041;-75
2023/08/20 08:20:31;;;;;;;15.43;2.85;;;;;;;;;;5005907;28;20046;-74
2023/08/20 08:22:57;;;;;;;14.10;2.70;;;;;;;;;;5002045;28;20037;-74
2023/08/20 08:25:23;;;;;;;15.73;3.17;;;;;;;;;;4997668;28;20604;-76
2023/08/20 08:27:49;;;;;;;11.98;2.47;;;;;;;;;;5001665;28;20038;-77
2023/08/20 08:30:15;;;;;;;9.70;2.55;;;;;;;;;;5003817;28;20038;-76
2023/08/20 08:32:41;;;;;;;14.93;3.10;;;;;;;;;;4991684;28;20499;-75
2023/08/20 08:35:07;;;;;;;13.93;2.90;;;;;;;;;;4994261;28;20042;-76
2023/08/20 08:37:34;;;;;;;14.77;3.38;;;;;;;;;;4991220;28;20034;-75
2023/08/20 08:40:00;;;;;;;16.10;3.08;;;;;;;;;;4989929;28;20034;-75
2023/08/20 08:42:26;;;;;;;18.15;2.90;;;;;;;;;;4980860;28;20034;-75
2023/08/20 08:44:52;;;;;;;12.55;2.40;;;;;;;;;;4997539;28;20031;-74
2023/08/20 08:47:19;;;;;;;11.75;2.92;;;;;;;;;;4994017;28;20034;-74
2023/08/20 08:49:46;;;;;;;12.55;2.50;;;;;;;;;;4985993;28;20034;-74
2023/08/20 08:52:12;;;;;;;13.48;2.90;;;;;;;;;;4980331;28;20039;-73
2023/08/20 08:54:38;;;;;;;14.63;3.63;;;;;;;;;;4977946;28;20022;-74
2023/08/20 08:57:05;;;;;;;14.32;2.40;;;;;;;;;;4987560;28;20042;-74
2023/08/20 08:59:31;;;;;;;7.97;1.88;;;;;;;;;;4984199;28;20464;-74
2023/08/20 09:01:57;;;;;;;13.35;2.40;;;;;;;;;;4987164;28;20038;-74
2023/08/20 09:04:23;;;;;;;9.15;2.15;;;;;;;;;;4990000;28;20116;-74
2023/08/20 09:06:53;;;;;;;10.18;1.95;;;;;;;;;;4989220;28;20502;-74
2023/08/20 09:09:20;;;;;;;15.27;2.63;;;;;;;;;;4989320;28;20036;-73
2023/08/20 09:11:46;;;;;;;13.27;2.40;;;;;;;;;;4986641;28;20396;-74
2023/08/20 09:14:23;;;;;;;16.40;2.40;;;;;;;;;;4998840;28;20050;-75
2023/08/20 09:16:54;;;;;;;12.75;2.00;;;;;;;;;;4981656;28;20030;-76
2023/08/20 09:19:20;;;;;;;;;;;;;;;;;;4987353;28;20368;-73
2023/08/20 09:21:48;;;;;;;10.55;1.88;;;;;;;;;;4986921;28;19917;-73
2023/08/20 09:24:14;;;;;;;15.13;2.60;;;;;;;;;;4989703;28;20030;-74
2023/08/20 09:26:40;;;;;;;12.80;2.35;;;;;;;;;;4986699;28;20049;-74
2023/08/20 09:29:06;;;;;;;14.70;3.00;;;;;;;;;;4985327;28;20181;-75
2023/08/20 09:31:39;;;;;;;8.65;2.13;;;;;;;;;;4987101;28;20039;-76
2023/08/20 09:34:05;;;;;;;11.07;2.20;;;;;;;;;;4982386;28;20059;-74
2023/08/20 09:36:32;;;;;;;10.07;2.13;;;;;;;;;;4992490;28;20074;-75
2023/08/20 09:38:58;;;;;;;7.05;2.10;;;;;;;;;;4985780;28;20034;-75
2023/08/20 09:41:25;;;;;;;7.95;2.03;;;;;;;;;;4982953;28;20139;-75
2023/08/20 09:43:56;;;;;;;11.55;1.65;;;;;;;;;;4990840;28;20475;-75
2023/08/20 09:46:24;;;;;;;8.82;1.80;;;;;;;;;;4987231;28;20230;-76
2023/08/20 09:48:54;;;;;;;9.52;2.60;;;;;;;;;;4990695;28;20030;-76
2023/08/20 09:51:25;;;;;;;8.68;2.08;;;;;;;;;;4987931;28;20164;-74
2023/08/20 09:53:56;;;;;;;7.43;2.33;;;;;;;;;;4985348;28;20034;-76
2023/08/20 09:56:31;;;;;;;7.72;1.52;;;;;;;;;;4988867;28;20080;-75
2023/08/20 09:59:00;;;;;;;8.02;1.67;;;;;;;;;;4993832;28;20389;-75
2023/08/20 10:01:27;;;;;;;9.02;1.90;;;;;;;;;;4986931;28;20400;-75
2023/08/20 10:03:54;;;;;;;7.68;2.17;;;;;;;;;;4983524;28;20494;-76
2023/08/20 10:06:20;;;;;;;11.02;1.98;;;;;;;;;;4981886;28;20034;-76
2023/08/20 10:08:49;;;;;;;7.43;1.75;;;;;;;;;;4980565;28;20045;-83
2023/08/20 10:11:15;;;;;;;7.22;1.65;;;;;;;;;;4993932;28;20030;-78
2023/08/20 10:13:41;;;;;;;6.53;1.55;;;;;;;;;;4991646;28;20038;-77
2023/08/20 10:16:07;;;;;;;8.68;2.17;;;;;;;;;;4993116;28;20044;-78
2023/08/20 10:18:35;;;;;;;9.02;2.55;;;;;;;;;;4990072;28;20082;-76
2023/08/20 10:21:02;;;;;;;12.50;2.55;;;;;;;;;;4988046;28;20046;-76
2023/08/20 10:23:28;;;;;;;6.10;1.92;;;;;;;;;;4992377;28;20036;-78
2023/08/20 10:25:54;;;;;;;6.47;1.75;;;;;;;;;;4984998;28;20042;-79
2023/08/20 10:28:21;;;;;;;7.75;1.83;;;;;;;;;;4983676;28;20091;-80
2023/08/20 10:31:06;;;;;;;8.52;2.50;;;;;;;;;;4989935;28;20037;-78
2023/08/20 10:33:33;;;;;;;9.70;1.65;;;;;;;;;;4985788;28;20034;-76
2023/08/20 10:36:07;;;;;;;7.05;1.92;;;;;;;;;;4989559;28;20045;-77
2023/08/20 10:38:36;;;;;;;7.65;2.13;;;;;;;;;;4982649;28;20550;-78
2023/08/20 10:41:06;;;;;;;6.78;1.55;;;;;;;;;;4983592;28;20108;-78
2023/08/20 10:43:39;;;;;;;6.65;1.63;;;;;;;;;;4985907;28;20026;-78
2023/08/20 10:46:11;;;;;;;8.02;1.70;;;;;;;;;;4990569;28;20048;-77
2023/08/20 10:48:38;;;;;;;8.45;2.13;;;;;;;;;;4986718;28;20104;-80
2023/08/20 10:51:07;;;;;;;6.90;1.80;;;;;;;;;;4990319;28;20435;-79
2023/08/20 10:53:34;;;;;;;6.70;1.67;;;;;;;;;;4986580;28;20044;-78
2023/08/20 10:56:11;;;;;;;5.97;1.77;;;;;;;;;;4991139;28;20058;-80
2023/08/20 10:58:39;;;;;;;6.70;2.10;;;;;;;;;;4986013;28;20048;-79
2023/08/20 11:01:24;;;;;;;8.40;2.92;;;;;;;;;;4980710;28;20031;-77
2023/08/20 11:03:51;;;;;;;8.68;2.35;;;;;;;;;;4995995;28;20779;-76
2023/08/20 11:06:18;;;;;;;6.95;1.83;;;;;;;;;;5008369;28;20034;-76
2023/08/20 11:08:45;;;;;;;6.40;1.80;;;;;;;;;;4993711;28;20112;-74
2023/08/20 11:11:12;;;;;;;6.28;1.90;;;;;;;;;;4984783;28;20042;-75
2023/08/20 11:13:38;;;;;;;9.93;2.05;;;;;;;;;;4988266;28;20117;-76
2023/08/20 11:16:05;;;;;;;6.88;1.73;;;;;;;;;;4980818;28;20030;-74
2023/08/20 11:18:34;;;;;;;4.47;1.23;;;;;;;;;;4977449;28;20472;-74
2023/08/20 11:21:00;;;;;;;8.52;2.10;;;;;;;;;;4978485;28;20054;-74
2023/08/20 11:23:26;;;;;;;9.70;1.95;;;;;;;;;;4985703;28;20046;-74
2023/08/20 11:25:52;;;;;;;8.32;1.67;;;;;;;;;;4986319;28;20117;-75
2023/08/20 11:28:18;;;;;;;10.57;1.88;;;;;;;;;;4978107;28;20105;-75
2023/08/20 11:30:46;;;;;;;10.52;1.65;;;;;;;;;;4984676;28;20066;-75
2023/08/20 11:33:13;;;;;;;9.85;1.58;;;;;;;;;;4984912;28;20031;-75
2023/08/20 11:35:39;;;;;;;5.68;1.50;;;;;;;;;;4988239;28;20038;-75
2023/08/20 11:38:05;;;;;;;6.68;1.50;;;;;;;;;;4989601;28;20400;-75
2023/08/20 11:40:31;;;;;;;8.65;1.83;;;;;;;;;;4989883;28;20510;-75
2023/08/20 11:42:57;;;;;;;6.90;1.63;;;;;;;;;;4987932;28;20030;-74
2023/08/20 11:45:23;;;;;;;7.28;1.55;;;;;;;;;;4980833;28;20038;-73
2023/08/20 11:47:49;;;;;;;19.33;9.70;;;;;;;;;;4985697;28;20034;-74
2023/08/20 11:50:15;;;;;;;8.80;1.95;;;;;;;;;;4987857;28;20455;-75
2023/08/20 11:52:41;;;;;;;10.73;1.90;;;;;;;;;;4980968;28;20609;-73
2023/08/20 11:55:09;;;;;;;10.52;1.83;;;;;;;;;;4984492;28;20042;-75
2023/08/20 11:57:35;;;;;;;6.30;1.80;;;;;;;;;;4984887;28;20048;-76
2023/08/20 12:00:05;;;;;;;5.15;1.15;;;;;;;;;;4981973;28;20060;-75
2023/08/20 12:02:31;;;;;;;6.53;1.65;;;;;;;;;;4990336;28;20089;-75
2023/08/20 12:04:58;;;;;;;6.03;1.40;;;;;;;;;;4991515;28;20034;-74
2023/08/20 12:07:27;;;;;;;7.10;1.85;;;;;;;;;;4994676;28;20022;-74
2023/08/20 12:09:56;;;;;;;7.05;1.92;;;;;;;;;;4990377;28;20038;-74
2023/08/20 12:12:22;;;;;;;8.05;1.55;;;;;;;;;;4990947;28;20029;-74
2023/08/20 12:14:49;;;;;;;6.88;1.70;;;;;;;;;;4979638;28;20038;-74
2023/08/20 12:17:19;;;;;;;3.92;1.30;;;;;;;;;;4983977;28;20345;-74
2023/08/20 12:19:45;;;;;;;6.38;1.55;;;;;;;;;;4992472;28;20526;-73
2023/08/20 12:22:12;;;;;;;6.82;1.60;;;;;;;;;;4988562;28;20042;-73
2023/08/20 12:24:38;;;;;;;8.25;1.98;;;;;;;;;;4988451;28;20026;-73
2023/08/20 12:27:04;;;;;;;9.45;2.00;;;;;;;;;;4989037;28;20047;-74
2023/08/20 12:29:30;;;;;;;7.60;1.58;;;;;;;;;;4988506;28;20041;-73
2023/08/20 12:31:56;;;;;;;9.00;1.67;;;;;;;;;;4983865;28;22305;-73
2023/08/20 12:34:23;;;;;;;8.32;1.50;;;;;;;;;;4987099;28;20030;-73
2023/08/20 12:36:50;;;;;;;8.77;1.33;;;;;;;;;;4989958;28;20519;-74
2023/08/20 12:39:16;;;;;;;7.68;1.83;;;;;;;;;;4987007;28;20468;-73
2023/08/20 12:41:42;;;;;;;8.98;1.70;;;;;;;;;;4992463;28;20049;-74
2023/08/20 12:44:09;;;;;;;5.93;1.95;;;;;;;;;;4990803;28;20031;-75
2023/08/20 12:46:35;;;;;;;6.60;1.42;;;;;;;;;;4980333;28;20030;-75
2023/08/20 12:49:01;;;;;;;6.60;1.63;;;;;;;;;;4989286;28;20030;-75
2023/08/20 12:51:27;;;;;;;5.57;1.48;;;;;;;;;;4987490;28;20355;-74
2023/08/20 12:53:53;;;;;;;7.00;1.98;;;;;;;;;;4989639;28;20046;-74
2023/08/20 12:56:19;;;;;;;8.38;2.15;;;;;;;;;;4988483;28;20033;-74
2023/08/20 12:58:45;;;;;;;5.35;1.73;;;;;;;;;;4989010;28;20037;-75
2023/08/20 13:01:11;;;;;;;4.10;1.50;;;;;;;;;;4980841;28;20038;-74
2023/08/20 13:03:38;;;;;;;5.72;1.30;;;;;;;;;;4977396;28;20053;-72
2023/08/20 13:06:04;;;;;;;6.43;1.25;;;;;;;;;;4986913;28;20543;-72
2023/08/20 13:08:30;;;;;;;7.65;1.98;;;;;;;;;;4988960;28;20026;-72
2023/08/20 13:10:57;;;;;;;5.80;1.60;;;;;;;;;;4991374;28;20471;-73
2023/08/20 13:13:24;;;;;;;8.65;1.52;;;;;;;;;;4982156;28;20047;-75
2023/08/20 13:15:53;;;;;;;8.05;1.70;;;;;;;;;;4985334;28;20156;-77
2023/08/20 13:18:24;;;;;;;7.03;1.55;;;;;;;;;;4978933;28;20494;-77
2023/08/20 13:20:50;;;;;;;7.40;1.38;;;;;;;;;;4983140;28;20065;-77
2023/08/20 13:23:16;;;;;;;10.18;1.52;;;;;;;;;;4989261;28;20030;-76
2023/08/20 13:25:43;;;;;;;5.72;1.27;;;;;;;;;;4987014;28;20384;-76
2023/08/20 13:28:09;;;;;;;8.70;2.63;;;;;;;;;;4992121;28;20076;-76
2023/08/20 13:30:35;;;;;;;6.55;1.33;;;;;;;;;;4995622;28;20042;-75
2023/08/20 13:33:01;;;;;;;5.70;1.13;;;;;;;;;;4992956;28;20053;-76
2023/08/20 13:35:27;;;;;;;7.15;1.10;;;;;;;;;;4990043;28;20041;-77
2023/08/20 13:37:53;;;;;;;8.55;1.50;;;;;;;;;;4993603;28;20033;-75
2023/08/20 13:40:19;;;;;;;6.72;1.65;;;;;;;;;;4995184;28;20041;-75
2023/08/20 13:42:45;;;;;;;5.43;2.10;;;;;;;;;;4990139;28;20045;-74
2023/08/20 13:45:11;;;;;;;10.80;5.00;;;;;;;;;;4989336;28;20523;-75
2023/08/20 13:47:37;;;;;;;4.60;1.17;;;;;;;;;;5003677;28;20384;-77
2023/08/20 13:50:04;;;;;;;7.20;1.48;;;;;;;;;;4994651;28;20467;-77
2023/08/20 13:52:30;;;;;;;5.25;1.20;;;;;;;;;;4981562;28;20541;-77
2023/08/20 13:54:56;;;;;;;6.45;1.10;;;;;;;;;;4999533;28;20057;-77
2023/08/20 13:57:22;;;;;;;5.97;1.50;;;;;;;;;;4993983;28;20034;-77
2023/08/20 13:59:49;;;;;;;8.80;1.95;;;;;;;;;;4998902;28;20042;-77
2023/08/20 14:02:16;;;;;;;6.78;2.08;;;;;;;;;;4981837;28;20708;-76
2023/08/20 14:04:42;;;;;;;7.40;1.67;;;;;;;;;;4991997;28;20510;-75
2023/08/20 14:07:08;;;;;;;5.85;1.25;;;;;;;;;;4990895;28;20026;-74
2023/08/20 14:09:35;;;;;;;4.32;1.02;;;;;;;;;;4990000;28;20345;-77
2023/08/20 14:12:01;;;;;;;6.22;1.25;;;;;;;;;;4987013;28;20033;-78
2023/08/20 14:14:27;;;;;;;6.53;1.60;;;;;;;;;;4982895;28;20110;-75
2023/08/20 14:16:54;;;;;;;6.63;1.20;;;;;;;;;;4990929;28;20034;-76
2023/08/20 14:19:19;;;;;;;8.05;1.38;;;;;;;;;;4995734;28;20032;-75
2023/08/20 14:21:45;;;;;;;5.03;1.17;;;;;;;;;;4988723;28;20471;-76
2023/08/20 14:24:11;;;;;;;8.07;1.58;;;;;;;;;;4983281;28;20038;-76
2023/08/20 14:26:38;;;;;;;4.30;1.33;;;;;;;;;;4988470;28;20082;-77
2023/08/20 14:29:04;;;;;;;11.65;6.68;;;;;;;;;;4987600;28;20034;-75
2023/08/20 14:31:31;;;;;;;4.10;1.67;;;;;;;;;;4988386;28;20113;-75
2023/08/20 14:33:57;;;;;;;7.93;3.95;;;;;;;;;;4986154;28;20026;-74